sensor_id;sensor_type;location;lat;lon;timestamp;temperature;humidity
33931;DHT22;20215;53.130;6.408;2022-10-31T00:01:17;18.70;93.60
33931;DHT22;20215;53.130;6.408;2022-10-31T00:03:43;18.70;93.60
33931;DHT22;20215;53.130;6.408;2022-10-31T00:06:09;18.70;93.60
33931;DHT22;20215;53.130;6.408;2022-10-31T00:08:35;18.70;93.50
33931;DHT22;20215;53.130;6.408;2022-10-31T00:11:00;18.70;93.50
33931;DHT22;20215;53.130;6.408;2022-10-31T00:13:26;18.70;93.50
33931;DHT22;20215;53.130;6.408;2022-10-31T00:15:52;18.60;93.40
33931;DHT22;20215;53.130;6.408;2022-10-31T00:18:17;18.60;93.40
33931;DHT22;20215;53.130;6.408;2022-10-31T00:20:43;18.70;93.30
33931;DHT22;20215;53.130;6.408;2022-10-31T00:23:09;18.60;93.30
33931;DHT22;20215;53.130;6.408;2022-10-31T00:25:37;18.60;93.20
33931;DHT22;20215;53.130;6.408;2022-10-31T00:28:04;18.60;93.30
33931;DHT22;20215;53.130;6.408;2022-10-31T00:30:30;18.60;93.20
33931;DHT22;20215;53.130;6.408;2022-10-31T00:32:55;18.60;93.30
33931;DHT22;20215;53.130;6.408;2022-10-31T00:35:21;18.60;93.30
33931;DHT22;20215;53.130;6.408;2022-10-31T00:37:47;18.70;93.30
33931;DHT22;20215;53.130;6.408;2022-10-31T00:40:12;18.60;93.30
33931;DHT22;20215;53.130;6.408;2022-10-31T00:42:39;18.60;93.20
33931;DHT22;20215;53.130;6.408;2022-10-31T00:45:05;18.60;93.40
33931;DHT22;20215;53.130;6.408;2022-10-31T00:47:31;18.60;93.20
33931;DHT22;20215;53.130;6.408;2022-10-31T00:49:56;18.60;93.10
33931;DHT22;20215;53.130;6.408;2022-10-31T00:52:22;18.60;93.10
33931;DHT22;20215;53.130;6.408;2022-10-31T00:54:47;18.50;93.00
33931;DHT22;20215;53.130;6.408;2022-10-31T00:57:13;18.50;93.00
33931;DHT22;20215;53.130;6.408;2022-10-31T00:59:38;18.50;93.00
33931;DHT22;20215;53.130;6.408;2022-10-31T01:02:04;18.50;92.90
33931;DHT22;20215;53.130;6.408;2022-10-31T01:04:29;18.50;92.90
33931;DHT22;20215;53.130;6.408;2022-10-31T01:06:55;18.50;92.90
33931;DHT22;20215;53.130;6.408;2022-10-31T01:09:21;18.50;92.90
33931;DHT22;20215;53.130;6.408;2022-10-31T01:11:46;18.50;92.90
33931;DHT22;20215;53.130;6.408;2022-10-31T01:14:13;18.40;92.90
33931;DHT22;20215;53.130;6.408;2022-10-31T01:16:39;18.50;93.00
33931;DHT22;20215;53.130;6.408;2022-10-31T01:19:04;18.40;92.90
33931;DHT22;20215;53.130;6.408;2022-10-31T01:21:30;18.40;93.00
33931;DHT22;20215;53.130;6.408;2022-10-31T01:23:56;18.40;93.00
33931;DHT22;20215;53.130;6.408;2022-10-31T01:26:25;18.50;93.00
33931;DHT22;20215;53.130;6.408;2022-10-31T01:28:57;18.40;92.90
33931;DHT22;20215;53.130;6.408;2022-10-31T01:31:26;18.50;92.90
33931;DHT22;20215;53.130;6.408;2022-10-31T01:33:52;18.40;92.90
33931;DHT22;20215;53.130;6.408;2022-10-31T01:36:21;18.40;92.90
33931;DHT22;20215;53.130;6.408;2022-10-31T01:38:49;18.50;92.80
33931;DHT22;20215;53.130;6.408;2022-10-31T01:41:20;18.40;92.80
33931;DHT22;20215;53.130;6.408;2022-10-31T01:46:12;18.40;92.80
33931;DHT22;20215;53.130;6.408;2022-10-31T01:48:39;18.40;92.70
33931;DHT22;20215;53.130;6.408;2022-10-31T01:51:05;18.30;92.70
33931;DHT22;20215;53.130;6.408;2022-10-31T01:53:32;18.40;92.70
33931;DHT22;20215;53.130;6.408;2022-10-31T01:55:59;18.40;92.70
33931;DHT22;20215;53.130;6.408;2022-10-31T01:58:27;18.30;92.60
33931;DHT22;20215;53.130;6.408;2022-10-31T02:00:56;18.40;92.70
33931;DHT22;20215;53.130;6.408;2022-10-31T02:03:24;18.30;92.70
33931;DHT22;20215;53.130;6.408;2022-10-31T02:05:53;18.30;92.70
33931;DHT22;20215;53.130;6.408;2022-10-31T02:08:30;18.30;92.70
33931;DHT22;20215;53.130;6.408;2022-10-31T02:10:58;18.30;92.60
33931;DHT22;20215;53.130;6.408;2022-10-31T02:13:25;18.30;92.60
33931;DHT22;20215;53.130;6.408;2022-10-31T02:15:55;18.30;92.60
33931;DHT22;20215;53.130;6.408;2022-10-31T02:18:22;18.30;92.60
33931;DHT22;20215;53.130;6.408;2022-10-31T02:21:18;18.30;92.60
33931;DHT22;20215;53.130;6.408;2022-10-31T02:26:41;18.30;92.40
33931;DHT22;20215;53.130;6.408;2022-10-31T02:43:34;18.20;92.30
33931;DHT22;20215;53.130;6.408;2022-10-31T02:46:11;18.20;92.30
33931;DHT22;20215;53.130;6.408;2022-10-31T02:48:40;18.20;92.40
33931;DHT22;20215;53.130;6.408;2022-10-31T02:51:11;18.20;92.50
33931;DHT22;20215;53.130;6.408;2022-10-31T02:53:38;18.20;92.40
33931;DHT22;20215;53.130;6.408;2022-10-31T02:56:18;18.20;92.50
33931;DHT22;20215;53.130;6.408;2022-10-31T02:58:52;18.20;92.30
33931;DHT22;20215;53.130;6.408;2022-10-31T03:07:54;18.20;92.10
33931;DHT22;20215;53.130;6.408;2022-10-31T03:10:31;18.10;92.20
33931;DHT22;20215;53.130;6.408;2022-10-31T03:15:49;18.00;92.30
33931;DHT22;20215;53.130;6.408;2022-10-31T03:18:27;18.00;92.30
33931;DHT22;20215;53.130;6.408;2022-10-31T03:21:04;18.00;92.20
33931;DHT22;20215;53.130;6.408;2022-10-31T03:23:32;18.00;92.20
33931;DHT22;20215;53.130;6.408;2022-10-31T03:26:00;18.00;92.20
33931;DHT22;20215;53.130;6.408;2022-10-31T03:28:30;18.00;92.30
33931;DHT22;20215;53.130;6.408;2022-10-31T03:31:00;18.10;92.30
33931;DHT22;20215;53.130;6.408;2022-10-31T03:33:39;18.00;92.30
33931;DHT22;20215;53.130;6.408;2022-10-31T03:36:08;18.10;92.10
33931;DHT22;20215;53.130;6.408;2022-10-31T03:38:35;18.00;92.10
33931;DHT22;20215;53.130;6.408;2022-10-31T03:41:04;18.00;92.10
33931;DHT22;20215;53.130;6.408;2022-10-31T03:43:35;18.00;92.00
33931;DHT22;20215;53.130;6.408;2022-10-31T03:46:03;18.00;91.90
33931;DHT22;20215;53.130;6.408;2022-10-31T03:48:29;18.00;91.90
33931;DHT22;20215;53.130;6.408;2022-10-31T03:53:44;18.00;91.80
33931;DHT22;20215;53.130;6.408;2022-10-31T03:56:18;18.00;91.80
33931;DHT22;20215;53.130;6.408;2022-10-31T03:59:00;18.00;91.70
33931;DHT22;20215;53.130;6.408;2022-10-31T04:01:30;18.00;91.70
33931;DHT22;20215;53.130;6.408;2022-10-31T04:03:57;18.00;91.70
33931;DHT22;20215;53.130;6.408;2022-10-31T04:06:24;17.90;91.70
33931;DHT22;20215;53.130;6.408;2022-10-31T04:09:00;17.90;91.60
33931;DHT22;20215;53.130;6.408;2022-10-31T04:11:30;17.90;91.60
33931;DHT22;20215;53.130;6.408;2022-10-31T04:13:59;17.90;91.80
33931;DHT22;20215;53.130;6.408;2022-10-31T04:16:26;17.90;91.70
33931;DHT22;20215;53.130;6.408;2022-10-31T04:18:52;17.90;91.70
33931;DHT22;20215;53.130;6.408;2022-10-31T04:21:17;17.90;91.70
33931;DHT22;20215;53.130;6.408;2022-10-31T04:24:11;17.90;91.60
33931;DHT22;20215;53.130;6.408;2022-10-31T04:26:37;17.90;91.50
33931;DHT22;20215;53.130;6.408;2022-10-31T04:29:03;17.90;91.60
33931;DHT22;20215;53.130;6.408;2022-10-31T04:31:28;17.90;91.60
33931;DHT22;20215;53.130;6.408;2022-10-31T04:33:54;17.90;91.50
33931;DHT22;20215;53.130;6.408;2022-10-31T04:36:19;17.80;91.50
33931;DHT22;20215;53.130;6.408;2022-10-31T04:38:45;17.90;91.60
33931;DHT22;20215;53.130;6.408;2022-10-31T04:41:11;17.80;91.50
33931;DHT22;20215;53.130;6.408;2022-10-31T04:43:36;17.80;91.50
33931;DHT22;20215;53.130;6.408;2022-10-31T04:46:02;17.80;91.40
33931;DHT22;20215;53.130;6.408;2022-10-31T04:48:28;17.80;91.40
33931;DHT22;20215;53.130;6.408;2022-10-31T04:50:59;17.80;91.30
33931;DHT22;20215;53.130;6.408;2022-10-31T04:53:24;17.80;91.20
33931;DHT22;20215;53.130;6.408;2022-10-31T04:55:50;17.80;91.30
33931;DHT22;20215;53.130;6.408;2022-10-31T04:58:15;17.80;91.30
33931;DHT22;20215;53.130;6.408;2022-10-31T05:00:41;17.80;91.30
33931;DHT22;20215;53.130;6.408;2022-10-31T05:03:07;17.80;91.30
33931;DHT22;20215;53.130;6.408;2022-10-31T05:05:32;17.80;91.30
33931;DHT22;20215;53.130;6.408;2022-10-31T05:07:58;17.70;91.20
33931;DHT22;20215;53.130;6.408;2022-10-31T05:10:25;17.80;91.20
33931;DHT22;20215;53.130;6.408;2022-10-31T05:12:55;17.70;91.10
33931;DHT22;20215;53.130;6.408;2022-10-31T05:15:23;17.70;91.10
33931;DHT22;20215;53.130;6.408;2022-10-31T05:17:49;17.70;91.10
33931;DHT22;20215;53.130;6.408;2022-10-31T05:20:16;17.70;91.10
33931;DHT22;20215;53.130;6.408;2022-10-31T05:22:44;17.70;91.10
33931;DHT22;20215;53.130;6.408;2022-10-31T05:25:10;17.70;91.10
33931;DHT22;20215;53.130;6.408;2022-10-31T05:27:39;17.70;91.10
33931;DHT22;20215;53.130;6.408;2022-10-31T05:30:05;17.70;91.10
33931;DHT22;20215;53.130;6.408;2022-10-31T05:32:37;17.70;91.00
33931;DHT22;20215;53.130;6.408;2022-10-31T05:35:04;17.60;90.90
33931;DHT22;20215;53.130;6.408;2022-10-31T05:37:29;17.60;91.00
33931;DHT22;20215;53.130;6.408;2022-10-31T05:39:55;17.60;91.00
33931;DHT22;20215;53.130;6.408;2022-10-31T05:42:20;17.70;91.00
33931;DHT22;20215;53.130;6.408;2022-10-31T05:44:46;17.70;91.00
33931;DHT22;20215;53.130;6.408;2022-10-31T05:47:12;17.60;91.00
33931;DHT22;20215;53.130;6.408;2022-10-31T05:49:37;17.60;91.00
33931;DHT22;20215;53.130;6.408;2022-10-31T05:52:03;17.60;91.00
33931;DHT22;20215;53.130;6.408;2022-10-31T05:54:28;17.60;90.90
33931;DHT22;20215;53.130;6.408;2022-10-31T05:56:54;17.60;91.10
33931;DHT22;20215;53.130;6.408;2022-10-31T05:59:19;17.60;91.10
33931;DHT22;20215;53.130;6.408;2022-10-31T06:01:45;17.60;91.10
33931;DHT22;20215;53.130;6.408;2022-10-31T06:04:11;17.60;91.30
33931;DHT22;20215;53.130;6.408;2022-10-31T06:06:36;17.50;90.90
33931;DHT22;20215;53.130;6.408;2022-10-31T06:09:02;17.50;90.90
33931;DHT22;20215;53.130;6.408;2022-10-31T06:11:27;17.50;90.90
33931;DHT22;20215;53.130;6.408;2022-10-31T06:13:53;17.60;90.80
33931;DHT22;20215;53.130;6.408;2022-10-31T06:16:19;17.50;90.70
33931;DHT22;20215;53.130;6.408;2022-10-31T06:18:45;17.50;90.70
33931;DHT22;20215;53.130;6.408;2022-10-31T06:21:11;17.50;90.60
33931;DHT22;20215;53.130;6.408;2022-10-31T06:23:37;17.50;90.70
33931;DHT22;20215;53.130;6.408;2022-10-31T06:26:02;17.50;90.90
33931;DHT22;20215;53.130;6.408;2022-10-31T06:28:28;17.50;90.60
33931;DHT22;20215;53.130;6.408;2022-10-31T06:30:53;17.50;90.70
33931;DHT22;20215;53.130;6.408;2022-10-31T06:33:19;17.50;90.70
33931;DHT22;20215;53.130;6.408;2022-10-31T06:35:45;17.50;90.70
33931;DHT22;20215;53.130;6.408;2022-10-31T06:38:12;17.50;90.70
33931;DHT22;20215;53.130;6.408;2022-10-31T06:40:37;17.50;90.80
33931;DHT22;20215;53.130;6.408;2022-10-31T06:43:03;17.40;90.80
33931;DHT22;20215;53.130;6.408;2022-10-31T06:45:28;17.40;90.90
33931;DHT22;20215;53.130;6.408;2022-10-31T06:47:55;17.40;90.90
33931;DHT22;20215;53.130;6.408;2022-10-31T06:50:22;17.40;90.90
33931;DHT22;20215;53.130;6.408;2022-10-31T06:52:58;17.40;90.90
33931;DHT22;20215;53.130;6.408;2022-10-31T06:55:25;17.40;90.80
33931;DHT22;20215;53.130;6.408;2022-10-31T06:57:59;17.40;90.70
33931;DHT22;20215;53.130;6.408;2022-10-31T07:00:40;17.40;90.60
33931;DHT22;20215;53.130;6.408;2022-10-31T07:03:10;17.40;90.60
33931;DHT22;20215;53.130;6.408;2022-10-31T07:05:36;17.40;90.70
33931;DHT22;20215;53.130;6.408;2022-10-31T07:08:04;17.40;90.70
33931;DHT22;20215;53.130;6.408;2022-10-31T07:10:32;17.40;90.80
33931;DHT22;20215;53.130;6.408;2022-10-31T07:12:59;17.30;90.90
33931;DHT22;20215;53.130;6.408;2022-10-31T07:15:26;17.40;91.10
33931;DHT22;20215;53.130;6.408;2022-10-31T07:17:52;17.40;91.10
33931;DHT22;20215;53.130;6.408;2022-10-31T07:20:18;17.30;90.90
33931;DHT22;20215;53.130;6.408;2022-10-31T07:22:44;17.40;91.00
33931;DHT22;20215;53.130;6.408;2022-10-31T07:25:10;17.30;91.00
33931;DHT22;20215;53.130;6.408;2022-10-31T07:27:40;17.30;90.90
33931;DHT22;20215;53.130;6.408;2022-10-31T07:30:07;17.30;91.00
33931;DHT22;20215;53.130;6.408;2022-10-31T07:32:44;17.30;91.00
33931;DHT22;20215;53.130;6.408;2022-10-31T07:35:12;17.30;90.90
33931;DHT22;20215;53.130;6.408;2022-10-31T07:37:39;17.30;91.00
33931;DHT22;20215;53.130;6.408;2022-10-31T07:40:06;17.30;91.10
33931;DHT22;20215;53.130;6.408;2022-10-31T07:42:40;17.30;91.10
33931;DHT22;20215;53.130;6.408;2022-10-31T07:45:08;17.30;91.00
33931;DHT22;20215;53.130;6.408;2022-10-31T07:47:41;17.30;91.10
33931;DHT22;20215;53.130;6.408;2022-10-31T07:50:09;17.40;91.10
33931;DHT22;20215;53.130;6.408;2022-10-31T07:52:35;17.30;91.20
33931;DHT22;20215;53.130;6.408;2022-10-31T07:55:01;17.30;91.20
33931;DHT22;20215;53.130;6.408;2022-10-31T07:57:28;17.30;91.30
33931;DHT22;20215;53.130;6.408;2022-10-31T07:59:54;17.40;91.20
33931;DHT22;20215;53.130;6.408;2022-10-31T08:02:20;17.30;91.30
33931;DHT22;20215;53.130;6.408;2022-10-31T08:04:45;17.30;91.30
33931;DHT22;20215;53.130;6.408;2022-10-31T08:07:11;17.40;91.40
33931;DHT22;20215;53.130;6.408;2022-10-31T08:09:36;17.40;91.50
33931;DHT22;20215;53.130;6.408;2022-10-31T08:12:02;17.40;91.40
33931;DHT22;20215;53.130;6.408;2022-10-31T08:14:28;17.40;91.50
33931;DHT22;20215;53.130;6.408;2022-10-31T08:16:54;17.40;91.40
33931;DHT22;20215;53.130;6.408;2022-10-31T08:19:20;17.40;91.60
33931;DHT22;20215;53.130;6.408;2022-10-31T08:21:46;17.40;91.50
33931;DHT22;20215;53.130;6.408;2022-10-31T08:24:11;17.40;91.50
33931;DHT22;20215;53.130;6.408;2022-10-31T08:26:37;17.40;92.00
33931;DHT22;20215;53.130;6.408;2022-10-31T08:29:03;17.50;91.90
33931;DHT22;20215;53.130;6.408;2022-10-31T08:31:29;17.50;92.10
33931;DHT22;20215;53.130;6.408;2022-10-31T08:33:54;17.50;92.10
33931;DHT22;20215;53.130;6.408;2022-10-31T08:36:20;17.50;92.10
33931;DHT22;20215;53.130;6.408;2022-10-31T08:38:47;17.50;92.00
33931;DHT22;20215;53.130;6.408;2022-10-31T08:41:13;17.50;92.00
33931;DHT22;20215;53.130;6.408;2022-10-31T08:43:39;17.60;91.90
33931;DHT22;20215;53.130;6.408;2022-10-31T08:46:05;17.60;91.80
33931;DHT22;20215;53.130;6.408;2022-10-31T08:48:30;17.60;91.70
33931;DHT22;20215;53.130;6.408;2022-10-31T08:50:57;17.60;92.00
33931;DHT22;20215;53.130;6.408;2022-10-31T08:53:24;17.60;91.70
33931;DHT22;20215;53.130;6.408;2022-10-31T08:55:49;17.70;91.70
33931;DHT22;20215;53.130;6.408;2022-10-31T08:58:17;17.70;91.60
33931;DHT22;20215;53.130;6.408;2022-10-31T09:00:44;17.70;91.60
33931;DHT22;20215;53.130;6.408;2022-10-31T09:03:18;17.70;91.50
33931;DHT22;20215;53.130;6.408;2022-10-31T09:05:44;17.80;91.40
33931;DHT22;20215;53.130;6.408;2022-10-31T09:08:11;17.70;91.50
33931;DHT22;20215;53.130;6.408;2022-10-31T09:10:37;17.80;91.40
33931;DHT22;20215;53.130;6.408;2022-10-31T09:13:06;17.80;91.40
33931;DHT22;20215;53.130;6.408;2022-10-31T09:15:34;17.80;91.50
33931;DHT22;20215;53.130;6.408;2022-10-31T09:18:00;17.80;91.40
33931;DHT22;20215;53.130;6.408;2022-10-31T09:20:27;17.80;91.40
33931;DHT22;20215;53.130;6.408;2022-10-31T09:23:00;17.90;91.40
33931;DHT22;20215;53.130;6.408;2022-10-31T09:25:27;17.90;91.30
33931;DHT22;20215;53.130;6.408;2022-10-31T09:27:56;18.00;91.50
33931;DHT22;20215;53.130;6.408;2022-10-31T09:30:23;18.00;91.40
33931;DHT22;20215;53.130;6.408;2022-10-31T09:32:58;18.00;91.40
33931;DHT22;20215;53.130;6.408;2022-10-31T09:35:24;18.10;91.30
33931;DHT22;20215;53.130;6.408;2022-10-31T09:37:57;18.20;91.10
33931;DHT22;20215;53.130;6.408;2022-10-31T09:40:52;18.20;90.90
33931;DHT22;20215;53.130;6.408;2022-10-31T09:46:30;18.30;90.80
33931;DHT22;20215;53.130;6.408;2022-10-31T09:49:28;18.40;90.80
33931;DHT22;20215;53.130;6.408;2022-10-31T09:52:16;18.40;90.70
33931;DHT22;20215;53.130;6.408;2022-10-31T09:54:51;18.50;90.70
33931;DHT22;20215;53.130;6.408;2022-10-31T09:57:24;18.60;90.80
33931;DHT22;20215;53.130;6.408;2022-10-31T09:59:50;18.70;90.70
33931;DHT22;20215;53.130;6.408;2022-10-31T10:02:27;18.70;90.70
33931;DHT22;20215;53.130;6.408;2022-10-31T10:05:03;18.80;90.60
33931;DHT22;20215;53.130;6.408;2022-10-31T10:10:00;18.90;90.60
33931;DHT22;20215;53.130;6.408;2022-10-31T10:12:47;18.90;90.50
33931;DHT22;20215;53.130;6.408;2022-10-31T10:18:21;19.00;90.10
33931;DHT22;20215;53.130;6.408;2022-10-31T10:27:09;19.00;90.20
33931;DHT22;20215;53.130;6.408;2022-10-31T10:30:02;19.10;90.30
33931;DHT22;20215;53.130;6.408;2022-10-31T10:32:53;19.10;90.10
33931;DHT22;20215;53.130;6.408;2022-10-31T10:38:01;19.10;90.30
33931;DHT22;20215;53.130;6.408;2022-10-31T10:40:29;19.00;89.70
33931;DHT22;20215;53.130;6.408;2022-10-31T10:48:45;19.00;90.30
33931;DHT22;20215;53.130;6.408;2022-10-31T10:51:20;19.00;90.20
33931;DHT22;20215;53.130;6.408;2022-10-31T10:54:29;19.10;90.00
33931;DHT22;20215;53.130;6.408;2022-10-31T10:59:43;19.00;89.90
33931;DHT22;20215;53.130;6.408;2022-10-31T11:02:19;19.00;90.20
33931;DHT22;20215;53.130;6.408;2022-10-31T11:04:49;19.00;90.40
33931;DHT22;20215;53.130;6.408;2022-10-31T11:07:16;19.00;90.10
33931;DHT22;20215;53.130;6.408;2022-10-31T11:09:41;18.90;89.90
33931;DHT22;20215;53.130;6.408;2022-10-31T11:12:09;18.90;90.10
33931;DHT22;20215;53.130;6.408;2022-10-31T11:14:54;18.90;90.30
33931;DHT22;20215;53.130;6.408;2022-10-31T11:17:39;18.90;90.10
33931;DHT22;20215;53.130;6.408;2022-10-31T11:23:04;18.90;90.10
33931;DHT22;20215;53.130;6.408;2022-10-31T11:25:31;18.90;90.40
33931;DHT22;20215;53.130;6.408;2022-10-31T11:28:08;19.00;90.50
33931;DHT22;20215;53.130;6.408;2022-10-31T11:30:58;18.90;90.50
33931;DHT22;20215;53.130;6.408;2022-10-31T11:33:49;18.90;90.00
33931;DHT22;20215;53.130;6.408;2022-10-31T11:36:47;18.90;89.80
33931;DHT22;20215;53.130;6.408;2022-10-31T11:39:21;18.90;90.10
33931;DHT22;20215;53.130;6.408;2022-10-31T11:41:48;18.90;90.00
33931;DHT22;20215;53.130;6.408;2022-10-31T11:44:28;18.90;90.20
33931;DHT22;20215;53.130;6.408;2022-10-31T11:46:57;18.90;90.00
33931;DHT22;20215;53.130;6.408;2022-10-31T11:49:43;18.90;90.10
33931;DHT22;20215;53.130;6.408;2022-10-31T11:54:55;18.90;90.10
33931;DHT22;20215;53.130;6.408;2022-10-31T11:57:41;18.90;90.00
33931;DHT22;20215;53.130;6.408;2022-10-31T12:06:24;18.90;90.10
33931;DHT22;20215;53.130;6.408;2022-10-31T12:08:53;18.90;90.20
33931;DHT22;20215;53.130;6.408;2022-10-31T12:17:19;18.90;90.00
33931;DHT22;20215;53.130;6.408;2022-10-31T12:22:36;18.90;90.30
33931;DHT22;20215;53.130;6.408;2022-10-31T12:25:28;18.90;90.00
33931;DHT22;20215;53.130;6.408;2022-10-31T12:30:59;18.90;90.10
33931;DHT22;20215;53.130;6.408;2022-10-31T12:39:12;18.90;90.20
33931;DHT22;20215;53.130;6.408;2022-10-31T12:41:46;18.90;90.20
33931;DHT22;20215;53.130;6.408;2022-10-31T12:44:30;18.90;90.30
33931;DHT22;20215;53.130;6.408;2022-10-31T12:55:44;18.90;90.20
33931;DHT22;20215;53.130;6.408;2022-10-31T12:58:26;18.90;90.40
33931;DHT22;20215;53.130;6.408;2022-10-31T13:01:05;19.00;90.50
33931;DHT22;20215;53.130;6.408;2022-10-31T13:03:52;19.00;90.50
33931;DHT22;20215;53.130;6.408;2022-10-31T13:06:21;19.00;90.50
33931;DHT22;20215;53.130;6.408;2022-10-31T13:08:52;19.00;90.60
33931;DHT22;20215;53.130;6.408;2022-10-31T13:11:34;19.00;90.50
33931;DHT22;20215;53.130;6.408;2022-10-31T13:14:23;19.00;90.40
33931;DHT22;20215;53.130;6.408;2022-10-31T13:16:50;19.00;90.30
33931;DHT22;20215;53.130;6.408;2022-10-31T13:19:29;19.00;90.50
33931;DHT22;20215;53.130;6.408;2022-10-31T13:22:16;19.00;90.40
33931;DHT22;20215;53.130;6.408;2022-10-31T13:25:03;19.10;90.30
33931;DHT22;20215;53.130;6.408;2022-10-31T13:30:20;19.00;90.50
33931;DHT22;20215;53.130;6.408;2022-10-31T13:33:21;19.00;90.50
33931;DHT22;20215;53.130;6.408;2022-10-31T13:36:24;19.00;90.20
33931;DHT22;20215;53.130;6.408;2022-10-31T13:42:28;19.00;90.30
33931;DHT22;20215;53.130;6.408;2022-10-31T13:45:18;19.00;90.40
33931;DHT22;20215;53.130;6.408;2022-10-31T13:48:40;19.00;90.40
33931;DHT22;20215;53.130;6.408;2022-10-31T13:50:42;19.00;90.40
33931;DHT22;20215;53.130;6.408;2022-10-31T14:00:44;19.10;90.20
33931;DHT22;20215;53.130;6.408;2022-10-31T14:03:18;19.00;90.30
33931;DHT22;20215;53.130;6.408;2022-10-31T14:05:52;19.10;90.20
33931;DHT22;20215;53.130;6.408;2022-10-31T14:08:21;19.10;90.30
33931;DHT22;20215;53.130;6.408;2022-10-31T14:10:50;19.00;90.30
33931;DHT22;20215;53.130;6.408;2022-10-31T14:13:22;19.00;90.20
33931;DHT22;20215;53.130;6.408;2022-10-31T14:19:02;19.10;90.10
33931;DHT22;20215;53.130;6.408;2022-10-31T14:21:35;19.00;90.30
33931;DHT22;20215;53.130;6.408;2022-10-31T14:24:14;19.00;90.30
33931;DHT22;20215;53.130;6.408;2022-10-31T14:26:54;19.00;90.20
33931;DHT22;20215;53.130;6.408;2022-10-31T14:29:23;19.00;90.20
33931;DHT22;20215;53.130;6.408;2022-10-31T14:31:57;19.00;90.20
33931;DHT22;20215;53.130;6.408;2022-10-31T14:34:27;19.00;90.20
33931;DHT22;20215;53.130;6.408;2022-10-31T14:53:08;18.90;90.50
33931;DHT22;20215;53.130;6.408;2022-10-31T14:55:41;19.00;90.50
33931;DHT22;20215;53.130;6.408;2022-10-31T14:58:09;18.90;90.60
33931;DHT22;20215;53.130;6.408;2022-10-31T15:00:35;18.90;90.40
33931;DHT22;20215;53.130;6.408;2022-10-31T15:03:27;18.90;90.50
33931;DHT22;20215;53.130;6.408;2022-10-31T15:05:55;18.90;90.40
33931;DHT22;20215;53.130;6.408;2022-10-31T15:08:35;18.90;90.60
33931;DHT22;20215;53.130;6.408;2022-10-31T15:11:24;19.00;90.50
33931;DHT22;20215;53.130;6.408;2022-10-31T15:13:57;18.90;90.50
33931;DHT22;20215;53.130;6.408;2022-10-31T15:16:24;18.90;90.50
33931;DHT22;20215;53.130;6.408;2022-10-31T15:19:00;18.90;90.70
33931;DHT22;20215;53.130;6.408;2022-10-31T15:21:28;18.90;90.70
33931;DHT22;20215;53.130;6.408;2022-10-31T15:23:56;18.80;90.80
33931;DHT22;20215;53.130;6.408;2022-10-31T15:26:24;18.90;90.90
33931;DHT22;20215;53.130;6.408;2022-10-31T15:29:10;18.90;90.80
33931;DHT22;20215;53.130;6.408;2022-10-31T15:31:36;18.90;90.80
33931;DHT22;20215;53.130;6.408;2022-10-31T15:34:29;18.80;90.80
33931;DHT22;20215;53.130;6.408;2022-10-31T15:36:57;18.80;90.60
33931;DHT22;20215;53.130;6.408;2022-10-31T15:39:23;18.80;90.90
33931;DHT22;20215;53.130;6.408;2022-10-31T15:41:53;18.80;90.80
33931;DHT22;20215;53.130;6.408;2022-10-31T15:44:23;18.80;90.90
33931;DHT22;20215;53.130;6.408;2022-10-31T15:46:58;18.80;90.90
33931;DHT22;20215;53.130;6.408;2022-10-31T15:51:57;18.80;91.00
33931;DHT22;20215;53.130;6.408;2022-10-31T15:54:25;18.70;90.80
33931;DHT22;20215;53.130;6.408;2022-10-31T15:56:51;18.70;90.90
33931;DHT22;20215;53.130;6.408;2022-10-31T15:59:21;18.70;91.00
33931;DHT22;20215;53.130;6.408;2022-10-31T16:02:07;18.70;90.90
33931;DHT22;20215;53.130;6.408;2022-10-31T16:04:34;18.70;90.90
33931;DHT22;20215;53.130;6.408;2022-10-31T16:07:13;18.70;91.10
33931;DHT22;20215;53.130;6.408;2022-10-31T16:09:59;18.70;91.10
33931;DHT22;20215;53.130;6.408;2022-10-31T16:12:45;18.60;90.70
33931;DHT22;20215;53.130;6.408;2022-10-31T16:15:14;18.70;90.80
33931;DHT22;20215;53.130;6.408;2022-10-31T16:17:43;18.70;91.10
33931;DHT22;20215;53.130;6.408;2022-10-31T16:20:36;18.70;91.20
33931;DHT22;20215;53.130;6.408;2022-10-31T16:23:03;18.70;90.90
33931;DHT22;20215;53.130;6.408;2022-10-31T16:25:29;18.60;91.00
33931;DHT22;20215;53.130;6.408;2022-10-31T16:28:01;18.60;91.00
33931;DHT22;20215;53.130;6.408;2022-10-31T16:33:00;18.60;90.90
33931;DHT22;20215;53.130;6.408;2022-10-31T16:35:35;18.60;91.10
33931;DHT22;20215;53.130;6.408;2022-10-31T16:38:01;18.60;90.90
33931;DHT22;20215;53.130;6.408;2022-10-31T16:40:27;18.50;91.10
33931;DHT22;20215;53.130;6.408;2022-10-31T16:42:52;18.60;91.20
33931;DHT22;20215;53.130;6.408;2022-10-31T16:45:23;18.60;91.00
33931;DHT22;20215;53.130;6.408;2022-10-31T16:47:49;18.50;91.00
33931;DHT22;20215;53.130;6.408;2022-10-31T16:50:25;18.60;91.00
33931;DHT22;20215;53.130;6.408;2022-10-31T16:52:53;18.60;90.80
33931;DHT22;20215;53.130;6.408;2022-10-31T16:55:19;18.50;91.10
33931;DHT22;20215;53.130;6.408;2022-10-31T16:57:48;18.60;90.90
33931;DHT22;20215;53.130;6.408;2022-10-31T17:00:17;18.50;90.90
33931;DHT22;20215;53.130;6.408;2022-10-31T17:02:44;18.50;90.90
33931;DHT22;20215;53.130;6.408;2022-10-31T17:05:12;18.50;90.90
33931;DHT22;20215;53.130;6.408;2022-10-31T17:07:44;18.50;90.80
33931;DHT22;20215;53.130;6.408;2022-10-31T17:10:10;18.50;90.70
33931;DHT22;20215;53.130;6.408;2022-10-31T17:12:37;18.50;91.00
33931;DHT22;20215;53.130;6.408;2022-10-31T17:15:05;18.40;90.80
33931;DHT22;20215;53.130;6.408;2022-10-31T17:17:31;18.50;90.90
33931;DHT22;20215;53.130;6.408;2022-10-31T17:19:57;18.50;91.10
33931;DHT22;20215;53.130;6.408;2022-10-31T17:22:28;18.50;91.00
33931;DHT22;20215;53.130;6.408;2022-10-31T17:24:53;18.50;90.80
33931;DHT22;20215;53.130;6.408;2022-10-31T17:27:19;18.40;90.80
33931;DHT22;20215;53.130;6.408;2022-10-31T17:29:45;18.40;91.10
33931;DHT22;20215;53.130;6.408;2022-10-31T17:32:10;18.40;90.90
33931;DHT22;20215;53.130;6.408;2022-10-31T17:34:36;18.40;90.80
33931;DHT22;20215;53.130;6.408;2022-10-31T17:37:23;18.50;90.70
33931;DHT22;20215;53.130;6.408;2022-10-31T17:39:49;18.40;90.60
33931;DHT22;20215;53.130;6.408;2022-10-31T17:42:37;18.40;90.90
33931;DHT22;20215;53.130;6.408;2022-10-31T17:45:04;18.40;90.50
33931;DHT22;20215;53.130;6.408;2022-10-31T17:47:30;18.30;90.80
33931;DHT22;20215;53.130;6.408;2022-10-31T17:49:55;18.30;90.80
33931;DHT22;20215;53.130;6.408;2022-10-31T17:52:21;18.30;91.00
33931;DHT22;20215;53.130;6.408;2022-10-31T17:54:47;18.30;91.00
33931;DHT22;20215;53.130;6.408;2022-10-31T17:57:12;18.30;91.10
33931;DHT22;20215;53.130;6.408;2022-10-31T17:59:38;18.30;90.90
33931;DHT22;20215;53.130;6.408;2022-10-31T18:02:03;18.30;90.90
33931;DHT22;20215;53.130;6.408;2022-10-31T18:04:34;18.30;90.90